createdAt,value
2022-10-09T00:01:19.826Z,23.00
2022-10-09T00:03:48.582Z,23.00
2022-10-09T00:06:21.348Z,23.20
2022-10-09T00:08:48.173Z,23.60
2022-10-09T00:11:24.427Z,23.30
2022-10-09T00:13:52.697Z,23.50
2022-10-09T00:16:20.864Z,23.70
2022-10-09T00:18:48.246Z,25.00
2022-10-09T00:21:23.033Z,24.00
2022-10-09T00:23:50.947Z,23.70
2022-10-09T00:26:18.341Z,23.40
2022-10-09T00:28:46.060Z,24.60
2022-10-09T00:31:13.771Z,24.80
2022-10-09T00:33:41.045Z,23.90
2022-10-09T00:36:12.374Z,24.30
2022-10-09T00:38:39.262Z,24.30
2022-10-09T00:41:06.735Z,24.30
2022-10-09T00:43:54.856Z,24.50
2022-10-09T00:46:26.483Z,24.30
2022-10-09T00:49:20.215Z,25.00
2022-10-09T00:51:49.257Z,25.50
2022-10-09T00:54:22.760Z,25.80
2022-10-09T00:56:50.721Z,25.80
2022-10-09T00:59:18.920Z,26.10
2022-10-09T01:01:46.115Z,26.30
2022-10-09T01:04:13.205Z,26.60
2022-10-09T01:07:04.951Z,26.30
2022-10-09T01:09:37.842Z,26.20
2022-10-09T01:12:17.041Z,26.40
2022-10-09T01:14:51.997Z,26.50
2022-10-09T01:17:29.182Z,26.30
2022-10-09T01:20:14.564Z,26.20
2022-10-09T01:22:56.751Z,25.90
2022-10-09T01:25:32.306Z,25.90
2022-10-09T01:28:01.060Z,26.20
2022-10-09T01:30:28.159Z,26.30
2022-10-09T01:32:55.954Z,26.40
2022-10-09T01:35:23.939Z,26.20
2022-10-09T01:37:53.157Z,26.10
2022-10-09T01:40:21.383Z,26.10
2022-10-09T01:42:48.347Z,26.10
2022-10-09T01:45:15.884Z,26.00
2022-10-09T01:47:43.333Z,26.20
2022-10-09T01:50:27.340Z,26.30
2022-10-09T01:53:01.383Z,26.10
2022-10-09T01:55:54.653Z,26.20
2022-10-09T01:58:36.002Z,27.00
2022-10-09T02:01:22.308Z,26.30
2022-10-09T02:03:51.588Z,26.10
2022-10-09T02:06:19.861Z,26.40
2022-10-09T02:08:51.224Z,26.60
2022-10-09T02:11:18.508Z,26.70
2022-10-09T02:13:47.353Z,26.70
2022-10-09T02:16:19.925Z,26.40
2022-10-09T02:18:52.399Z,26.70
2022-10-09T02:21:26.249Z,27.00
2022-10-09T02:23:54.871Z,26.90
2022-10-09T02:26:21.884Z,27.20
2022-10-09T02:28:49.029Z,27.20
2022-10-09T02:31:28.937Z,27.10
2022-10-09T02:34:07.462Z,27.30
2022-10-09T02:36:35.171Z,27.80
2022-10-09T02:39:02.715Z,27.80
2022-10-09T02:41:29.414Z,27.80
2022-10-09T02:43:56.407Z,27.80
2022-10-09T02:46:24.041Z,27.80
2022-10-09T02:48:50.877Z,27.60
2022-10-09T02:51:17.909Z,27.80
2022-10-09T02:53:45.643Z,28.10
2022-10-09T02:56:12.714Z,28.00
2022-10-09T02:58:40.276Z,28.30
2022-10-09T03:01:07.299Z,28.30
2022-10-09T03:03:34.296Z,28.30
2022-10-09T03:06:02.501Z,28.60
2022-10-09T03:08:29.389Z,28.50
2022-10-09T03:10:56.422Z,28.50
2022-10-09T03:13:23.182Z,28.50
2022-10-09T03:15:49.910Z,28.60
2022-10-09T03:18:16.635Z,28.70
2022-10-09T03:20:43.479Z,28.70
2022-10-09T03:23:10.290Z,28.90
2022-10-09T03:25:36.985Z,28.80
2022-10-09T03:28:04.114Z,29.00
2022-10-09T03:30:30.906Z,28.90
2022-10-09T03:32:57.593Z,29.10
2022-10-09T03:35:24.382Z,28.70
2022-10-09T03:37:51.133Z,29.60
2022-10-09T03:40:18.370Z,29.00
2022-10-09T03:42:45.054Z,29.10
2022-10-09T03:45:11.881Z,29.30
2022-10-09T03:47:38.613Z,29.20
2022-10-09T03:50:05.973Z,29.10
2022-10-09T03:52:32.868Z,29.40
2022-10-09T03:54:59.595Z,29.40
2022-10-09T03:57:26.427Z,29.70
2022-10-09T03:59:53.212Z,29.70
2022-10-09T04:02:20.121Z,29.70
2022-10-09T04:04:46.898Z,29.90
2022-10-09T04:07:13.633Z,29.60
2022-10-09T04:09:40.381Z,29.80
2022-10-09T04:12:07.137Z,29.80
2022-10-09T04:14:33.977Z,29.70
2022-10-09T04:17:00.706Z,29.60
2022-10-09T04:19:27.745Z,29.60
2022-10-09T04:21:54.516Z,29.60
2022-10-09T04:24:21.479Z,29.60
2022-10-09T04:26:48.193Z,29.60
2022-10-09T04:29:14.999Z,29.70
2022-10-09T04:31:41.832Z,29.80
2022-10-09T04:34:08.662Z,28.70
2022-10-09T04:36:35.401Z,30.00
2022-10-09T04:39:02.103Z,30.00
2022-10-09T04:41:28.831Z,30.00
2022-10-09T04:43:56.835Z,30.00
2022-10-09T04:46:24.067Z,30.00
2022-10-09T04:48:51.042Z,29.90
2022-10-09T04:51:18.210Z,29.90
2022-10-09T04:53:45.589Z,30.10
2022-10-09T04:56:18.329Z,31.10
2022-10-09T04:58:46.469Z,30.70
2022-10-09T05:01:13.298Z,30.90
2022-10-09T05:03:40.261Z,31.30
2022-10-09T05:06:09.581Z,31.30
2022-10-09T05:08:37.132Z,31.30
2022-10-09T05:11:09.918Z,31.10
2022-10-09T05:13:38.902Z,31.00
2022-10-09T05:16:08.661Z,31.20
2022-10-09T05:18:36.170Z,30.90
2022-10-09T05:21:06.061Z,30.20
2022-10-09T05:23:32.921Z,30.60
2022-10-09T05:26:04.604Z,31.00
2022-10-09T05:28:32.485Z,30.50
2022-10-09T05:30:59.441Z,31.10
2022-10-09T05:33:26.103Z,31.30
2022-10-09T05:35:53.433Z,31.70
2022-10-09T05:38:21.253Z,31.70
2022-10-09T05:40:59.077Z,31.90
2022-10-09T05:43:28.193Z,31.90
2022-10-09T05:45:55.487Z,30.80
2022-10-09T05:48:22.565Z,29.70
2022-10-09T05:50:49.341Z,30.00
2022-10-09T05:53:16.136Z,31.20
2022-10-09T05:55:42.902Z,31.80
2022-10-09T05:58:09.680Z,32.00
2022-10-09T06:00:36.406Z,32.00
2022-10-09T06:03:03.120Z,32.30
2022-10-09T06:05:29.956Z,32.40
2022-10-09T06:07:56.630Z,32.50
2022-10-09T06:10:23.445Z,32.70
2022-10-09T06:12:50.581Z,32.70
2022-10-09T06:15:17.605Z,32.60
2022-10-09T06:17:44.422Z,32.80
2022-10-09T06:20:11.451Z,33.40
2022-10-09T06:22:38.200Z,35.50
2022-10-09T06:25:05.594Z,34.70
2022-10-09T06:27:32.427Z,35.00
2022-10-09T06:29:59.206Z,35.50
2022-10-09T06:32:26.035Z,36.00
2022-10-09T06:34:53.553Z,36.60
2022-10-09T06:37:20.473Z,37.80
2022-10-09T06:39:47.394Z,39.20
2022-10-09T06:42:14.441Z,41.20
2022-10-09T06:44:43.359Z,43.80
2022-10-09T06:47:10.134Z,44.10
2022-10-09T06:49:36.924Z,44.30
2022-10-09T06:52:03.745Z,44.50
2022-10-09T06:54:30.617Z,44.80
2022-10-09T06:56:57.291Z,45.20
2022-10-09T06:59:24.114Z,45.20
2022-10-09T07:01:51.105Z,45.50
2022-10-09T07:04:18.796Z,45.80
2022-10-09T07:06:47.594Z,44.30
2022-10-09T07:09:15.722Z,42.30
2022-10-09T07:11:49.319Z,41.90
2022-10-09T07:14:16.982Z,42.00
2022-10-09T07:16:46.321Z,40.50
2022-10-09T07:19:15.009Z,38.00
2022-10-09T07:21:44.388Z,35.30
2022-10-09T07:24:12.333Z,34.30
2022-10-09T07:26:42.567Z,31.70
2022-10-09T07:29:11.135Z,29.10
2022-10-09T07:31:38.034Z,26.90
2022-10-09T07:34:06.182Z,24.60
2022-10-09T07:36:33.054Z,22.50
2022-10-09T07:39:00.060Z,22.00
2022-10-09T07:41:28.964Z,21.20
2022-10-09T07:43:56.181Z,19.40
2022-10-09T07:46:24.408Z,17.50
2022-10-09T07:48:51.596Z,13.60
2022-10-09T07:51:19.582Z,13.10
2022-10-09T07:53:46.828Z,10.80
2022-10-09T07:56:18.277Z,10.80
2022-10-09T07:58:56.743Z,11.00
2022-10-09T08:01:24.311Z,9.40
2022-10-09T08:03:51.212Z,7.90
2022-10-09T08:06:18.881Z,7.10
2022-10-09T08:08:49.861Z,6.20
2022-10-09T08:11:17.897Z,5.10
2022-10-09T08:13:46.012Z,4.40
2022-10-09T08:16:14.515Z,2.20
2022-10-09T08:18:41.727Z,2.50
2022-10-09T08:21:13.070Z,1.00
2022-10-09T08:23:39.962Z,1.00
2022-10-09T08:26:17.360Z,1.10
2022-10-09T08:28:45.208Z,1.30
2022-10-09T08:31:13.988Z,3.80
2022-10-09T08:33:41.081Z,5.60
2022-10-09T08:36:10.162Z,6.50
2022-10-09T08:38:47.192Z,7.90
2022-10-09T08:41:46.564Z,9.30
2022-10-09T08:44:24.271Z,11.90
2022-10-09T08:47:17.579Z,14.80
2022-10-09T08:50:10.125Z,15.20
2022-10-09T08:52:49.999Z,15.10
2022-10-09T08:55:24.779Z,15.00
2022-10-09T08:57:54.816Z,14.70
2022-10-09T09:00:25.346Z,13.80
2022-10-09T09:03:29.221Z,13.70
2022-10-09T09:06:09.681Z,12.90
2022-10-09T09:09:05.699Z,12.40
2022-10-09T09:11:51.023Z,12.80
2022-10-09T09:14:55.141Z,14.00
2022-10-09T09:17:47.952Z,15.50
2022-10-09T09:20:23.854Z,14.70
2022-10-09T09:22:50.872Z,15.20
2022-10-09T09:25:34.884Z,15.90
2022-10-09T09:28:18.315Z,16.60
2022-10-09T09:30:50.502Z,17.20
2022-10-09T09:33:33.811Z,17.00
2022-10-09T09:36:33.306Z,17.10
2022-10-09T09:39:54.307Z,16.70
2022-10-09T09:41:47.730Z,16.50
2022-10-09T09:44:17.296Z,16.00
2022-10-09T09:46:46.297Z,15.50
2022-10-09T09:49:21.886Z,15.00
2022-10-09T09:51:50.497Z,14.40
2022-10-09T09:54:22.166Z,14.10
2022-10-09T09:57:12.002Z,13.90
2022-10-09T09:59:43.203Z,13.90
2022-10-09T10:02:17.868Z,14.90
2022-10-09T10:04:52.465Z,14.70
2022-10-09T10:07:34.409Z,15.70
2022-10-09T10:10:03.426Z,16.40
2022-10-09T10:12:30.373Z,15.80
2022-10-09T10:14:58.424Z,15.60
2022-10-09T10:17:34.849Z,16.00
2022-10-09T10:20:06.559Z,15.20
2022-10-09T10:22:33.759Z,14.70
2022-10-09T10:25:00.807Z,13.60
2022-10-09T10:27:42.556Z,13.80
2022-10-09T10:30:15.595Z,14.80
2022-10-09T10:33:10.345Z,14.00
2022-10-09T10:35:41.135Z,13.70
2022-10-09T10:38:44.983Z,12.50
2022-10-09T10:41:28.321Z,12.60
2022-10-09T10:44:02.377Z,11.10
2022-10-09T10:46:58.757Z,9.60
2022-10-09T10:49:28.414Z,9.90
2022-10-09T10:52:11.195Z,9.80
2022-10-09T10:54:48.855Z,8.50
2022-10-09T10:57:26.383Z,7.50
2022-10-09T11:00:06.265Z,5.30
2022-10-09T11:03:05.928Z,2.80
2022-10-09T11:05:38.625Z,2.60
2022-10-09T11:08:08.112Z,1.40
2022-10-09T11:10:40.198Z,2.60
2022-10-09T11:13:18.075Z,1.50
2022-10-09T11:16:26.869Z,1.00
2022-10-09T11:19:32.328Z,1.00
2022-10-09T11:22:11.167Z,1.00
2022-10-09T11:24:49.640Z,1.00
2022-10-09T11:27:23.083Z,1.00
2022-10-09T11:30:03.099Z,1.00
2022-10-09T11:32:35.725Z,1.00
2022-10-09T11:35:18.546Z,1.00
2022-10-09T11:38:00.992Z,1.00
2022-10-09T11:40:36.494Z,1.00
2022-10-09T11:43:08.312Z,1.00
2022-10-09T11:46:01.275Z,1.00
2022-10-09T11:48:54.771Z,1.00
2022-10-09T11:51:34.591Z,1.00
2022-10-09T11:54:03.620Z,1.00
2022-10-09T11:56:32.052Z,1.00
2022-10-09T11:59:04.958Z,1.00
2022-10-09T12:01:44.423Z,1.00
2022-10-09T12:04:13.975Z,1.00
2022-10-09T12:07:01.900Z,1.00
2022-10-09T12:09:30.774Z,1.00
2022-10-09T12:12:15.549Z,1.00
2022-10-09T12:14:45.401Z,1.00
2022-10-09T12:17:22.609Z,1.00
2022-10-09T12:19:58.561Z,1.00
2022-10-09T12:22:35.707Z,1.00
2022-10-09T12:25:23.940Z,1.00
2022-10-09T12:27:55.621Z,1.00
2022-10-09T12:30:28.935Z,1.00
2022-10-09T12:33:05.589Z,1.00
2022-10-09T12:35:36.361Z,1.00
2022-10-09T12:38:25.797Z,1.00
2022-10-09T12:40:54.272Z,1.00
2022-10-09T12:43:23.599Z,1.00
2022-10-09T12:45:52.998Z,1.00
2022-10-09T12:48:25.974Z,1.00
2022-10-09T12:50:53.411Z,1.00
2022-10-09T12:53:23.147Z,1.00
2022-10-09T12:56:00.388Z,1.00
2022-10-09T12:58:36.674Z,1.00
2022-10-09T13:01:07.277Z,1.00
2022-10-09T13:03:38.355Z,1.00
2022-10-09T13:06:15.589Z,1.00
2022-10-09T13:08:43.440Z,1.00
2022-10-09T13:11:11.386Z,1.00
2022-10-09T13:13:38.425Z,1.00
2022-10-09T13:16:09.554Z,1.00
2022-10-09T13:18:37.844Z,1.00
2022-10-09T13:21:22.236Z,1.00
2022-10-09T13:23:49.302Z,1.00
2022-10-09T13:26:23.567Z,1.00
2022-10-09T13:28:50.657Z,1.00
2022-10-09T13:31:19.033Z,1.00
2022-10-09T13:33:46.966Z,1.00
2022-10-09T13:36:15.077Z,1.00
2022-10-09T13:38:43.010Z,1.00
2022-10-09T13:41:24.846Z,1.00
2022-10-09T13:43:53.556Z,1.00
2022-10-09T13:46:20.510Z,1.00
2022-10-09T13:48:47.359Z,1.00
2022-10-09T13:51:14.258Z,1.00
2022-10-09T13:53:41.043Z,1.00
2022-10-09T13:56:09.494Z,1.00
2022-10-09T13:58:36.811Z,1.00
2022-10-09T14:01:04.089Z,1.00
2022-10-09T14:03:30.936Z,1.00
2022-10-09T14:05:59.511Z,1.00
2022-10-09T14:08:26.421Z,1.00
2022-10-09T14:10:53.293Z,1.00
2022-10-09T14:13:21.493Z,1.00
2022-10-09T14:15:48.399Z,1.00
2022-10-09T14:18:15.170Z,1.00
2022-10-09T14:20:41.929Z,1.00
2022-10-09T14:23:09.221Z,1.00
2022-10-09T14:25:35.985Z,1.00
2022-10-09T14:28:03.488Z,1.00
2022-10-09T14:30:30.777Z,1.00
2022-10-09T14:32:57.706Z,1.00
2022-10-09T14:35:24.485Z,1.00
2022-10-09T14:37:51.291Z,1.00
2022-10-09T14:40:18.077Z,1.00
2022-10-09T14:42:44.844Z,1.00
2022-10-09T14:45:11.626Z,1.00
2022-10-09T14:47:38.367Z,1.00
2022-10-09T14:50:05.711Z,1.00
2022-10-09T14:52:32.467Z,1.00
2022-10-09T14:54:59.278Z,1.00
2022-10-09T14:57:26.080Z,1.00
2022-10-09T14:59:53.116Z,1.00
2022-10-09T15:02:19.978Z,1.00
2022-10-09T15:04:46.819Z,1.00
2022-10-09T15:07:13.792Z,1.50
2022-10-09T15:09:40.544Z,1.00
2022-10-09T15:12:07.310Z,1.00
2022-10-09T15:14:34.058Z,1.40
2022-10-09T15:17:00.854Z,1.00
2022-10-09T15:19:27.630Z,1.00
2022-10-09T15:21:54.413Z,1.00
2022-10-09T15:24:21.131Z,1.50
2022-10-09T15:26:47.847Z,2.30
2022-10-09T15:29:14.626Z,1.00
2022-10-09T15:31:41.715Z,1.70
2022-10-09T15:34:10.158Z,1.00
2022-10-09T15:36:44.341Z,1.00
2022-10-09T15:39:11.676Z,1.00
2022-10-09T15:41:40.255Z,1.00
2022-10-09T15:44:14.665Z,1.00
2022-10-09T15:46:41.632Z,1.00
2022-10-09T15:49:08.817Z,1.20
2022-10-09T15:51:35.639Z,1.50
2022-10-09T15:54:02.624Z,1.70
2022-10-09T15:56:29.735Z,2.10
2022-10-09T15:58:57.908Z,2.30
2022-10-09T16:01:25.460Z,2.40
2022-10-09T16:03:52.541Z,2.90
2022-10-09T16:06:22.891Z,3.90
2022-10-09T16:08:50.488Z,2.90
2022-10-09T16:11:21.684Z,3.10
2022-10-09T16:13:52.332Z,3.10
2022-10-09T16:16:21.317Z,3.60
2022-10-09T16:18:50.479Z,4.30
2022-10-09T16:21:22.202Z,4.10
2022-10-09T16:23:50.708Z,3.90
2022-10-09T16:26:20.624Z,4.00
2022-10-09T16:28:48.165Z,4.00
2022-10-09T16:31:30.593Z,4.20
2022-10-09T16:33:58.520Z,4.10
2022-10-09T16:36:25.426Z,5.20
2022-10-09T16:38:52.296Z,4.60
2022-10-09T16:41:21.740Z,4.50
2022-10-09T16:43:51.266Z,5.30
2022-10-09T16:46:26.317Z,4.60
2022-10-09T16:48:55.150Z,4.70
2022-10-09T16:51:31.339Z,5.10
2022-10-09T16:54:00.029Z,5.10
2022-10-09T16:56:30.338Z,5.20
2022-10-09T16:58:58.717Z,5.50
2022-10-09T17:01:27.033Z,5.50
2022-10-09T17:03:55.404Z,6.00
2022-10-09T17:06:25.440Z,5.80
2022-10-09T17:08:54.074Z,6.00
2022-10-09T17:11:22.065Z,6.10
2022-10-09T17:13:49.028Z,6.10
2022-10-09T17:16:19.413Z,6.30
2022-10-09T17:18:47.515Z,6.40
2022-10-09T17:21:15.589Z,8.10
2022-10-09T17:23:42.711Z,6.60
2022-10-09T17:26:15.304Z,6.80
2022-10-09T17:28:43.078Z,6.80
2022-10-09T17:31:14.240Z,7.60
2022-10-09T17:33:45.827Z,7.30
2022-10-09T17:36:14.638Z,7.70
2022-10-09T17:38:41.391Z,7.60
2022-10-09T17:41:10.597Z,8.10
2022-10-09T17:43:37.992Z,7.90
2022-10-09T17:46:05.278Z,8.10
2022-10-09T17:48:33.948Z,8.20
2022-10-09T17:51:03.912Z,8.20
2022-10-09T17:53:31.220Z,8.40
2022-10-09T17:56:03.118Z,8.40
2022-10-09T17:58:29.890Z,9.80
2022-10-09T18:00:56.858Z,8.70
2022-10-09T18:03:24.364Z,8.90
2022-10-09T18:05:51.604Z,9.30
2022-10-09T18:08:19.444Z,10.00
2022-10-09T18:10:46.993Z,9.50
2022-10-09T18:13:14.291Z,9.40
2022-10-09T18:15:43.298Z,11.90
2022-10-09T18:18:11.516Z,9.70
2022-10-09T18:20:39.695Z,9.70
2022-10-09T18:23:08.296Z,11.10
2022-10-09T18:25:40.802Z,10.60
2022-10-09T18:28:07.969Z,10.00
2022-10-09T18:30:35.037Z,11.30
2022-10-09T18:33:01.847Z,10.40
2022-10-09T18:35:30.302Z,10.60
2022-10-09T18:37:57.341Z,10.30
2022-10-09T18:40:24.118Z,11.90
2022-10-09T18:42:52.225Z,10.80
2022-10-09T18:45:19.223Z,11.00
2022-10-09T18:47:46.197Z,11.50
2022-10-09T18:50:14.195Z,11.60
2022-10-09T18:52:42.603Z,11.00
2022-10-09T18:55:12.224Z,11.60
2022-10-09T18:57:40.551Z,11.30
2022-10-09T19:00:08.037Z,12.00
2022-10-09T19:02:34.897Z,11.60
2022-10-09T19:05:02.031Z,12.80
2022-10-09T19:07:29.144Z,11.70
2022-10-09T19:09:57.433Z,11.70
2022-10-09T19:12:25.768Z,12.90
2022-10-09T19:14:52.780Z,12.00
2022-10-09T19:17:19.879Z,12.50
2022-10-09T19:19:46.669Z,12.30
2022-10-09T19:22:16.450Z,12.50
2022-10-09T19:24:44.386Z,14.00
2022-10-09T19:27:11.366Z,12.50
2022-10-09T19:29:38.225Z,12.60
2022-10-09T19:32:04.991Z,12.80
2022-10-09T19:34:31.983Z,12.90
2022-10-09T19:36:58.778Z,12.90
2022-10-09T19:39:25.704Z,13.00
2022-10-09T19:41:52.490Z,13.20
2022-10-09T19:44:19.505Z,13.50
2022-10-09T19:46:46.740Z,14.00
2022-10-09T19:49:13.617Z,14.70
2022-10-09T19:51:40.532Z,13.50
2022-10-09T19:54:08.457Z,13.50
2022-10-09T19:56:36.095Z,13.50
2022-10-09T19:59:05.575Z,13.60
2022-10-09T20:01:35.330Z,14.30
2022-10-09T20:04:05.230Z,14.00
2022-10-09T20:06:32.070Z,14.00
2022-10-09T20:08:59.312Z,14.50
2022-10-09T20:11:26.966Z,14.00
2022-10-09T20:13:56.125Z,14.70
2022-10-09T20:16:24.880Z,14.10
2022-10-09T20:18:51.757Z,14.20
2022-10-09T20:21:18.675Z,14.30
2022-10-09T20:23:45.585Z,14.30
2022-10-09T20:26:16.053Z,15.10
2022-10-09T20:28:43.959Z,14.40
2022-10-09T20:31:14.713Z,15.30
2022-10-09T20:33:42.609Z,14.70
2022-10-09T20:36:17.645Z,14.90
2022-10-09T20:38:44.459Z,15.50
2022-10-09T20:41:11.743Z,16.40
2022-10-09T20:43:40.528Z,15.70
2022-10-09T20:46:07.763Z,15.30
2022-10-09T20:48:34.657Z,15.10
2022-10-09T20:51:01.793Z,16.40
2022-10-09T20:53:28.514Z,15.60
2022-10-09T20:56:03.338Z,15.50
2022-10-09T20:58:30.311Z,15.50
2022-10-09T21:00:57.386Z,15.90
2022-10-09T21:03:24.325Z,16.10
2022-10-09T21:05:51.095Z,16.50
2022-10-09T21:08:17.859Z,16.80
2022-10-09T21:10:49.680Z,16.70
2022-10-09T21:13:17.150Z,17.30
2022-10-09T21:15:49.102Z,16.30
2022-10-09T21:18:18.001Z,16.60
2022-10-09T21:20:46.613Z,16.80
2022-10-09T21:23:15.840Z,16.70
2022-10-09T21:25:50.996Z,17.90
2022-10-09T21:28:20.233Z,16.90
2022-10-09T21:30:47.430Z,17.10
2022-10-09T21:33:14.610Z,17.40
2022-10-09T21:35:44.059Z,17.80
2022-10-09T21:38:13.118Z,18.20
2022-10-09T21:40:40.448Z,18.20
2022-10-09T21:43:08.117Z,18.10
2022-10-09T21:45:35.094Z,18.20
2022-10-09T21:48:01.822Z,18.60
2022-10-09T21:50:28.885Z,18.60
2022-10-09T21:52:55.790Z,18.70
2022-10-09T21:55:22.530Z,18.80
2022-10-09T21:57:49.487Z,19.00
2022-10-09T22:00:16.783Z,20.40
2022-10-09T22:02:43.554Z,19.10
2022-10-09T22:05:10.871Z,19.20
2022-10-09T22:07:37.662Z,20.00
2022-10-09T22:10:05.252Z,21.10
2022-10-09T22:12:32.594Z,19.70
2022-10-09T22:14:59.332Z,19.90
2022-10-09T22:17:26.324Z,20.10
2022-10-09T22:19:53.366Z,21.10
2022-10-09T22:22:20.101Z,21.40
2022-10-09T22:24:46.818Z,21.00
2022-10-09T22:27:13.582Z,21.20
2022-10-09T22:29:40.303Z,20.90
2022-10-09T22:32:10.294Z,20.90
2022-10-09T22:34:37.704Z,21.00
2022-10-09T22:37:04.962Z,21.10
2022-10-09T22:39:31.765Z,21.70
2022-10-09T22:41:58.523Z,21.30
2022-10-09T22:44:25.364Z,21.40
2022-10-09T22:46:52.109Z,22.20
2022-10-09T22:49:18.947Z,22.70
2022-10-09T22:51:45.731Z,23.60
2022-10-09T22:54:13.112Z,22.10
2022-10-09T22:56:42.351Z,22.70
2022-10-09T22:59:11.709Z,22.20
2022-10-09T23:01:41.602Z,22.20
2022-10-09T23:04:11.541Z,22.50
2022-10-09T23:06:39.403Z,22.10
2022-10-09T23:09:08.204Z,23.00
2022-10-09T23:11:35.625Z,23.00
2022-10-09T23:14:03.345Z,22.20
2022-10-09T23:16:30.545Z,22.70
2022-10-09T23:19:01.912Z,22.80
2022-10-09T23:21:31.559Z,22.40
2022-10-09T23:23:58.561Z,22.10
2022-10-09T23:26:28.174Z,22.20
2022-10-09T23:29:01.436Z,22.90
2022-10-09T23:31:28.979Z,22.10
2022-10-09T23:33:56.256Z,22.50
2022-10-09T23:36:25.992Z,23.10
2022-10-09T23:38:53.281Z,22.90
2022-10-09T23:41:26.262Z,22.90
2022-10-09T23:43:53.710Z,22.20
2022-10-09T23:46:22.886Z,22.50
2022-10-09T23:48:50.588Z,22.50
2022-10-09T23:51:19.063Z,22.60
2022-10-09T23:53:46.611Z,23.50
2022-10-09T23:56:21.282Z,23.10
2022-10-09T23:58:48.548Z,22.50
